Time;durP1;ratioP1;P1;durP2;ratioP2;P2;SDS_P1;SDS_P2;PMS_P1;PMS_P2;Temp;Humidity;BMP_temperature;BMP_pressure;BME280_temperature;BME280_humidity;BME280_pressure;Samples;Min_cycle;Max_cycle;Signal;HPM_P1;HPM_P2
2022/01/03 00:00:24;;;;;;;23.63;4.97;;;;;;;;;;5024485;28;20472;-72
2022/01/03 00:02:52;;;;;;;27.23;3.97;;;;;;;;;;5021021;28;20092;-71
2022/01/03 00:05:18;;;;;;;28.10;4.38;;;;;;;;;;5024075;28;20048;-71
2022/01/03 00:07:45;;;;;;;22.40;3.75;;;;;;;;;;5021988;28;20026;-71
2022/01/03 00:10:12;;;;;;;23.30;4.97;;;;;;;;;;5022604;28;20630;-70
2022/01/03 00:12:40;;;;;;;22.83;5.05;;;;;;;;;;5021258;28;20399;-71
2022/01/03 00:15:08;;;;;;;21.92;4.82;;;;;;;;;;5021033;28;20129;-70
2022/01/03 00:17:34;;;;;;;20.63;3.75;;;;;;;;;;5020976;28;20140;-70
2022/01/03 00:20:00;;;;;;;22.73;5.13;;;;;;;;;;5022816;28;20946;-72
2022/01/03 00:22:27;;;;;;;25.73;4.95;;;;;;;;;;5030647;28;20060;-71
2022/01/03 00:24:59;;;;;;;21.95;5.03;;;;;;;;;;5029810;28;20108;-70
2022/01/03 00:27:29;;;;;;;24.48;3.75;;;;;;;;;;5019298;28;20435;-71
2022/01/03 00:29:55;;;;;;;24.73;4.80;;;;;;;;;;5020400;28;20049;-71
2022/01/03 00:32:21;;;;;;;25.02;4.32;;;;;;;;;;5017068;28;20227;-70
2022/01/03 00:34:51;;;;;;;20.48;6.15;;;;;;;;;;5019809;28;20109;-71
2022/01/03 00:37:19;;;;;;;32.08;5.70;;;;;;;;;;5019789;28;20081;-71
2022/01/03 00:39:46;;;;;;;33.15;4.97;;;;;;;;;;5018691;28;20034;-71
2022/01/03 00:42:14;;;;;;;33.28;5.70;;;;;;;;;;5023550;28;20022;-69
2022/01/03 00:44:42;;;;;;;40.88;6.22;;;;;;;;;;5018667;28;20044;-70
2022/01/03 00:47:09;;;;;;;24.85;4.60;;;;;;;;;;5021418;28;20116;-70
2022/01/03 00:49:38;;;;;;;23.15;5.78;;;;;;;;;;5017874;28;20181;-71
2022/01/03 00:52:04;;;;;;;28.85;5.13;;;;;;;;;;5021424;28;20041;-71
2022/01/03 00:54:31;;;;;;;27.58;4.30;;;;;;;;;;5030049;28;20049;-70
2022/01/03 00:56:59;;;;;;;35.05;7.13;;;;;;;;;;5023805;28;20026;-70
2022/01/03 00:59:32;;;;;;;37.65;5.53;;;;;;;;;;5018807;28;20125;-70
2022/01/03 01:02:00;;;;;;;31.00;6.07;;;;;;;;;;5020787;28;20040;-69
2022/01/03 01:04:26;;;;;;;42.42;5.38;;;;;;;;;;5020602;28;20026;-71
2022/01/03 01:06:54;;;;;;;29.88;4.90;;;;;;;;;;5019618;28;20025;-71
2022/01/03 01:09:21;;;;;;;35.95;5.55;;;;;;;;;;5015927;28;20395;-69
2022/01/03 01:11:47;;;;;;;35.22;5.57;;;;;;;;;;5019831;28;20040;-68
2022/01/03 01:14:15;;;;;;;39.00;5.75;;;;;;;;;;5017013;28;20044;-71
2022/01/03 01:16:41;;;;;;;42.33;6.60;;;;;;;;;;5021118;28;20120;-71
2022/01/03 01:19:09;;;;;;;29.02;5.53;;;;;;;;;;5017977;28;20159;-70
2022/01/03 01:21:35;;;;;;;27.75;5.38;;;;;;;;;;5020069;28;20029;-71
2022/01/03 01:24:01;;;;;;;39.45;5.53;;;;;;;;;;5019240;28;20559;-70
2022/01/03 01:29:13;;;;;;;35.30;5.68;;;;;;;;;;5018490;28;20045;-69
2022/01/03 01:31:44;;;;;;;32.08;5.05;;;;;;;;;;5025288;28;20041;-70
2022/01/03 01:34:14;;;;;;;20.17;4.18;;;;;;;;;;5027605;28;20479;-68
2022/01/03 01:36:42;;;;;;;25.07;4.90;;;;;;;;;;5016958;28;20044;-69
2022/01/03 01:39:10;;;;;;;22.10;4.10;;;;;;;;;;5023365;28;20021;-71
2022/01/03 01:41:37;;;;;;;23.13;4.40;;;;;;;;;;5026587;28;20108;-71
2022/01/03 01:44:07;;;;;;;26.98;4.13;;;;;;;;;;5026961;28;20056;-70
2022/01/03 01:46:34;;;;;;;26.20;3.90;;;;;;;;;;5026868;28;20025;-69
2022/01/03 01:49:02;;;;;;;35.13;5.05;;;;;;;;;;5028011;28;20845;-70
2022/01/03 01:51:28;;;;;;;30.90;4.82;;;;;;;;;;5020449;28;20106;-69
2022/01/03 01:53:56;;;;;;;31.40;5.90;;;;;;;;;;5022176;28;20120;-71
2022/01/03 01:56:24;;;;;;;32.40;5.55;;;;;;;;;;5025357;28;20022;-71
2022/01/03 01:59:09;;;;;;;31.50;5.47;;;;;;;;;;5027532;28;20052;-71
2022/01/03 02:01:47;;;;;;;28.83;5.45;;;;;;;;;;5018847;28;20025;-71
2022/01/03 02:04:25;;;;;;;36.08;5.13;;;;;;;;;;5021881;28;20327;-71
2022/01/03 02:06:54;;;;;;;35.22;6.78;;;;;;;;;;5016157;28;20026;-71
2022/01/03 02:09:20;;;;;;;27.23;4.28;;;;;;;;;;5024233;28;20029;-71
2022/01/03 02:11:51;;;;;;;33.10;5.63;;;;;;;;;;5013464;28;20041;-70
2022/01/03 02:14:18;;;;;;;38.55;6.80;;;;;;;;;;5018959;28;20025;-69
2022/01/03 02:16:44;;;;;;;31.20;5.03;;;;;;;;;;5022542;28;20523;-71
2022/01/03 02:19:11;;;;;;;36.17;5.72;;;;;;;;;;5019081;28;20060;-72
2022/01/03 02:21:40;;;;;;;31.42;5.32;;;;;;;;;;5014178;28;20034;-71
2022/01/03 02:24:06;;;;;;;19.52;3.67;;;;;;;;;;5016210;28;20120;-70
2022/01/03 02:26:33;;;;;;;31.75;5.70;;;;;;;;;;5026602;28;20460;-72
2022/01/03 02:28:59;;;;;;;33.88;5.60;;;;;;;;;;5025627;28;20105;-71
2022/01/03 02:31:26;;;;;;;33.75;5.55;;;;;;;;;;5026250;28;20053;-72
2022/01/03 02:33:52;;;;;;;28.35;4.85;;;;;;;;;;5025325;28;20468;-71
2022/01/03 02:36:18;;;;;;;31.13;5.78;;;;;;;;;;5026776;28;20387;-72
2022/01/03 02:38:45;;;;;;;27.25;4.75;;;;;;;;;;5027244;28;20057;-71
2022/01/03 02:41:11;;;;;;;32.22;6.00;;;;;;;;;;5026272;28;20475;-70
2022/01/03 02:43:37;;;;;;;35.83;7.32;;;;;;;;;;5023114;28;20142;-70
2022/01/03 02:46:03;;;;;;;28.90;5.72;;;;;;;;;;5026437;28;20080;-71
2022/01/03 02:48:30;;;;;;;33.22;4.95;;;;;;;;;;5026929;28;20033;-70
2022/01/03 02:50:56;;;;;;;28.50;4.93;;;;;;;;;;5023845;28;20030;-70
2022/01/03 02:53:22;;;;;;;31.08;5.03;;;;;;;;;;5027308;28;20025;-72
2022/01/03 02:55:50;;;;;;;29.55;4.88;;;;;;;;;;5021587;28;20118;-72
2022/01/03 02:58:16;;;;;;;26.63;4.75;;;;;;;;;;5025342;28;20037;-70
2022/01/03 03:00:47;;;;;;;35.40;5.53;;;;;;;;;;5025692;28;20042;-71
2022/01/03 03:03:14;;;;;;;23.45;4.65;;;;;;;;;;5011064;28;20065;-71
2022/01/03 03:05:40;;;;;;;35.25;5.10;;;;;;;;;;5017086;28;20686;-71
2022/01/03 03:08:07;;;;;;;30.98;5.28;;;;;;;;;;5026553;28;20036;-71
2022/01/03 03:10:33;;;;;;;37.40;5.22;;;;;;;;;;5024713;28;20124;-72
2022/01/03 03:12:59;;;;;;;30.67;5.30;;;;;;;;;;5026449;28;20492;-71
2022/01/03 03:15:25;;;;;;;23.45;4.28;;;;;;;;;;5027060;28;20060;-72
2022/01/03 03:17:51;;;;;;;27.27;4.55;;;;;;;;;;5026293;28;20032;-70
2022/01/03 03:20:18;;;;;;;23.63;3.20;;;;;;;;;;5027070;28;20034;-70
2022/01/03 03:22:49;;;;;;;40.80;5.57;;;;;;;;;;5025561;28;20028;-72
2022/01/03 03:25:19;;;;;;;27.70;5.43;;;;;;;;;;5025549;28;20463;-72
2022/01/03 03:27:47;;;;;;;;;;;;;;;;;;5022201;28;20551;-70
2022/01/03 03:30:14;;;;;;;23.90;5.57;;;;;;;;;;5008159;28;20443;-72
2022/01/03 03:32:41;;;;;;;32.63;5.93;;;;;;;;;;5018054;28;20029;-71
2022/01/03 03:35:07;;;;;;;37.00;7.03;;;;;;;;;;5024050;28;20053;-71
2022/01/03 03:37:33;;;;;;;31.90;5.68;;;;;;;;;;5028624;28;20024;-71
2022/01/03 03:39:59;;;;;;;26.40;6.82;;;;;;;;;;5030383;28;20480;-72
2022/01/03 03:42:25;;;;;;;32.92;4.95;;;;;;;;;;5024673;28;20046;-72
2022/01/03 03:44:55;;;;;;;27.15;5.90;;;;;;;;;;5029977;28;20395;-70
2022/01/03 03:47:21;;;;;;;26.42;4.70;;;;;;;;;;5027617;28;20057;-69
2022/01/03 03:49:47;;;;;;;22.40;6.07;;;;;;;;;;5029151;28;20506;-71
2022/01/03 03:52:13;;;;;;;36.05;6.13;;;;;;;;;;5029921;28;20451;-70
2022/01/03 03:54:39;;;;;;;33.38;5.93;;;;;;;;;;5030819;28;20119;-70
2022/01/03 03:57:06;;;;;;;35.42;6.95;;;;;;;;;;5021150;28;20052;-70
2022/01/03 03:59:32;;;;;;;30.55;5.10;;;;;;;;;;5030392;28;20026;-69
2022/01/03 04:01:58;;;;;;;21.27;3.95;;;;;;;;;;5019112;28;20080;-71
2022/01/03 04:04:24;;;;;;;35.30;5.82;;;;;;;;;;5024582;28;20096;-69
2022/01/03 04:06:50;;;;;;;29.13;4.70;;;;;;;;;;5023254;28;20025;-70
2022/01/03 04:09:16;;;;;;;33.50;6.10;;;;;;;;;;5030102;28;20029;-70
2022/01/03 04:11:42;;;;;;;32.42;5.63;;;;;;;;;;5029691;28;20041;-73
2022/01/03 04:14:08;;;;;;;22.85;4.80;;;;;;;;;;5030812;28;20030;-70
2022/01/03 04:16:35;;;;;;;34.80;6.07;;;;;;;;;;5027275;28;20075;-71
2022/01/03 04:19:01;;;;;;;27.25;5.85;;;;;;;;;;5025816;28;20095;-71
2022/01/03 04:21:27;;;;;;;33.80;5.93;;;;;;;;;;5025631;28;20129;-71
2022/01/03 04:23:53;;;;;;;29.75;5.50;;;;;;;;;;5024745;28;20364;-72
2022/01/03 04:26:19;;;;;;;34.33;6.53;;;;;;;;;;5019981;28;20029;-70
2022/01/03 04:28:46;;;;;;;28.15;6.38;;;;;;;;;;5023368;28;20444;-71
2022/01/03 04:31:12;;;;;;;30.88;6.43;;;;;;;;;;5028288;28;20030;-70
2022/01/03 04:33:38;;;;;;;27.65;5.32;;;;;;;;;;5028510;28;20026;-70
2022/01/03 04:36:05;;;;;;;42.88;5.93;;;;;;;;;;5024642;28;20018;-70
2022/01/03 04:38:32;;;;;;;26.77;5.78;;;;;;;;;;5029942;28;20501;-69
2022/01/03 04:40:58;;;;;;;35.70;6.38;;;;;;;;;;5027724;28;20042;-70
2022/01/03 04:43:24;;;;;;;30.77;6.55;;;;;;;;;;5029897;28;20045;-69
2022/01/03 04:45:51;;;;;;;34.38;7.80;;;;;;;;;;5026792;28;20037;-72
2022/01/03 04:48:17;;;;;;;31.33;6.38;;;;;;;;;;5013781;28;20040;-69
2022/01/03 04:50:43;;;;;;;27.95;5.47;;;;;;;;;;5026308;28;20033;-70
2022/01/03 04:53:09;;;;;;;26.55;5.47;;;;;;;;;;5013408;28;20104;-70
2022/01/03 04:55:35;;;;;;;32.50;5.95;;;;;;;;;;5028877;28;20215;-72
2022/01/03 04:58:01;;;;;;;30.50;5.70;;;;;;;;;;5029121;28;20148;-70
2022/01/03 05:00:27;;;;;;;37.22;6.57;;;;;;;;;;5024974;28;20156;-71
2022/01/03 05:02:53;;;;;;;33.05;6.95;;;;;;;;;;5017890;28;20583;-71
2022/01/03 05:05:19;;;;;;;26.92;5.07;;;;;;;;;;5022863;28;20072;-70
2022/01/03 05:07:46;;;;;;;25.08;5.28;;;;;;;;;;5023667;28;20108;-69
2022/01/03 05:10:12;;;;;;;31.25;5.47;;;;;;;;;;5021582;28;20045;-71
2022/01/03 05:12:38;;;;;;;27.83;5.47;;;;;;;;;;5028242;28;20077;-70
2022/01/03 05:15:04;;;;;;;28.88;5.78;;;;;;;;;;5026285;28;20025;-70
2022/01/03 05:17:31;;;;;;;27.23;5.45;;;;;;;;;;5022773;28;20108;-69
2022/01/03 05:19:58;;;;;;;32.00;6.32;;;;;;;;;;5028944;28;20036;-70
2022/01/03 05:22:24;;;;;;;27.67;6.32;;;;;;;;;;5018493;28;20029;-68
2022/01/03 05:24:51;;;;;;;35.45;6.40;;;;;;;;;;5027901;28;20172;-69
2022/01/03 05:27:17;;;;;;;29.10;5.63;;;;;;;;;;5028265;28;20464;-69
2022/01/03 05:29:43;;;;;;;33.85;6.63;;;;;;;;;;5020451;28;20030;-71
2022/01/03 05:32:09;;;;;;;38.33;7.80;;;;;;;;;;5022877;28;20045;-73
2022/01/03 05:34:35;;;;;;;28.83;6.05;;;;;;;;;;5022284;28;20025;-72
2022/01/03 05:37:01;;;;;;;36.67;5.22;;;;;;;;;;5023433;28;20112;-72
2022/01/03 05:39:28;;;;;;;33.47;5.78;;;;;;;;;;5013585;28;20034;-72
2022/01/03 05:41:54;;;;;;;34.20;6.28;;;;;;;;;;5021101;28;20060;-69
2022/01/03 05:44:20;;;;;;;32.47;6.28;;;;;;;;;;5019967;28;20881;-71
2022/01/03 05:46:46;;;;;;;32.90;6.60;;;;;;;;;;5022864;28;20053;-71
2022/01/03 05:49:12;;;;;;;29.23;5.80;;;;;;;;;;5017108;28;20087;-71
2022/01/03 05:51:38;;;;;;;31.55;7.40;;;;;;;;;;5022372;28;20056;-70
2022/01/03 05:54:05;;;;;;;41.50;6.47;;;;;;;;;;5019916;28;20029;-69
2022/01/03 05:56:31;;;;;;;26.33;5.00;;;;;;;;;;5018368;28;20115;-69
2022/01/03 05:58:57;;;;;;;27.80;5.30;;;;;;;;;;5024617;28;20101;-71
2022/01/03 06:01:25;;;;;;;28.13;5.80;;;;;;;;;;5024034;28;20159;-69
2022/01/03 06:03:58;;;;;;;34.58;7.13;;;;;;;;;;5019295;28;20032;-69
2022/01/03 06:06:53;;;;;;;37.38;6.22;;;;;;;;;;5022811;28;20364;-71
2022/01/03 06:09:18;;;;;;;42.78;8.60;;;;;;;;;;5015342;28;20061;-70
2022/01/03 06:11:44;;;;;;;36.97;7.20;;;;;;;;;;5025181;28;20510;-73
2022/01/03 06:14:10;;;;;;;26.38;4.95;;;;;;;;;;5023509;28;20029;-70
2022/01/03 06:16:36;;;;;;;41.00;7.75;;;;;;;;;;5020178;28;20044;-69
2022/01/03 06:19:03;;;;;;;31.00;5.70;;;;;;;;;;5020306;28;20041;-72
2022/01/03 06:21:29;;;;;;;48.22;8.45;;;;;;;;;;5015650;28;20128;-72
2022/01/03 06:23:55;;;;;;;46.97;7.65;;;;;;;;;;5021328;28;20025;-71
2022/01/03 06:26:21;;;;;;;31.25;4.93;;;;;;;;;;5025274;28;20057;-72
2022/01/03 06:28:47;;;;;;;28.08;6.43;;;;;;;;;;5025523;28;20087;-72
2022/01/03 06:31:13;;;;;;;41.45;8.00;;;;;;;;;;5017134;28;20057;-72
2022/01/03 06:33:40;;;;;;;42.17;7.70;;;;;;;;;;5027376;28;20025;-70
2022/01/03 06:36:07;;;;;;;27.75;5.28;;;;;;;;;;5027948;28;20391;-71
2022/01/03 06:38:33;;;;;;;30.88;5.53;;;;;;;;;;5024145;28;20034;-71
2022/01/03 06:40:58;;;;;;;32.30;7.00;;;;;;;;;;5016342;28;20164;-70
2022/01/03 06:43:25;;;;;;;32.47;7.60;;;;;;;;;;5022555;28;20171;-70
2022/01/03 06:45:51;;;;;;;35.78;6.13;;;;;;;;;;5022116;28;20562;-68
2022/01/03 06:48:17;;;;;;;40.80;6.25;;;;;;;;;;5022863;28;20431;-69
2022/01/03 06:50:43;;;;;;;34.85;7.55;;;;;;;;;;5022362;28;20053;-71
2022/01/03 06:53:09;;;;;;;31.45;7.13;;;;;;;;;;5021451;28;20435;-71
2022/01/03 06:55:35;;;;;;;31.60;6.25;;;;;;;;;;5014843;28;20113;-69
2022/01/03 06:58:01;;;;;;;31.95;5.72;;;;;;;;;;5020344;28;20464;-69
2022/01/03 07:00:27;;;;;;;32.10;7.53;;;;;;;;;;5017596;28;20841;-71
2022/01/03 07:02:53;;;;;;;28.35;5.57;;;;;;;;;;5018860;28;20420;-70
2022/01/03 07:05:19;;;;;;;26.10;6.53;;;;;;;;;;5017202;28;20057;-71
2022/01/03 07:07:45;;;;;;;31.75;6.63;;;;;;;;;;5017791;28;20017;-72
2022/01/03 07:10:11;;;;;;;30.10;5.65;;;;;;;;;;5022180;28;20045;-71
2022/01/03 07:12:39;;;;;;;24.33;5.20;;;;;;;;;;5017779;28;20029;-70
2022/01/03 07:20:35;;;;;;;21.60;5.00;;;;;;;;;;5024370;28;20060;-72
2022/01/03 07:23:03;;;;;;;28.88;5.40;;;;;;;;;;5020300;28;20037;-70
2022/01/03 07:25:29;;;;;;;36.03;6.88;;;;;;;;;;5021146;28;20052;-72
2022/01/03 07:27:55;;;;;;;23.55;4.82;;;;;;;;;;5018814;28;20380;-71
2022/01/03 07:30:22;;;;;;;27.05;5.95;;;;;;;;;;5018757;28;20073;-70
2022/01/03 07:32:48;;;;;;;30.92;5.55;;;;;;;;;;5028935;28;20171;-71
2022/01/03 07:35:16;;;;;;;31.38;5.90;;;;;;;;;;5029914;28;20036;-70
2022/01/03 07:37:42;;;;;;;29.23;6.30;;;;;;;;;;5029943;28;20040;-70
2022/01/03 07:40:08;;;;;;;26.42;6.03;;;;;;;;;;5028762;28;20033;-71
2022/01/03 07:42:34;;;;;;;24.10;4.65;;;;;;;;;;5031377;28;20092;-72
2022/01/03 07:45:01;;;;;;;26.10;5.30;;;;;;;;;;5027069;28;20060;-70
2022/01/03 07:47:32;;;;;;;25.30;5.82;;;;;;;;;;5025431;28;20969;-71
2022/01/03 07:49:59;;;;;;;25.27;6.28;;;;;;;;;;5021674;28;20039;-70
2022/01/03 07:52:25;;;;;;;29.92;6.10;;;;;;;;;;5024688;28;20655;-71
2022/01/03 07:54:52;;;;;;;26.45;5.15;;;;;;;;;;5024989;28;20028;-72
2022/01/03 07:57:18;;;;;;;27.63;5.18;;;;;;;;;;5029928;28;20031;-72
2022/01/03 07:59:45;;;;;;;27.95;6.20;;;;;;;;;;5029983;28;20049;-73
2022/01/03 08:02:19;;;;;;;24.70;5.60;;;;;;;;;;5027565;28;20037;-74
2022/01/03 08:04:46;;;;;;;23.52;5.57;;;;;;;;;;5030063;28;20138;-72
2022/01/03 08:07:12;;;;;;;27.95;4.72;;;;;;;;;;5029956;28;20036;-73
2022/01/03 08:09:38;;;;;;;29.10;6.03;;;;;;;;;;5030051;28;20054;-72
2022/01/03 08:12:05;;;;;;;20.23;4.32;;;;;;;;;;5021467;28;20037;-71
2022/01/03 08:14:32;;;;;;;24.73;5.82;;;;;;;;;;5031642;28;20049;-71
2022/01/03 08:16:58;;;;;;;24.73;4.60;;;;;;;;;;5029652;28;20029;-70
2022/01/03 08:19:24;;;;;;;25.98;6.28;;;;;;;;;;5009132;28;20046;-70
2022/01/03 08:21:50;;;;;;;26.73;5.63;;;;;;;;;;5028971;28;20045;-70
2022/01/03 08:24:17;;;;;;;25.08;4.80;;;;;;;;;;5028010;28;20055;-71
2022/01/03 08:26:43;;;;;;;25.23;6.10;;;;;;;;;;5030036;28;20025;-69
2022/01/03 08:29:09;;;;;;;23.55;6.25;;;;;;;;;;5029666;28;20029;-69
2022/01/03 08:31:37;;;;;;;36.47;9.80;;;;;;;;;;5025478;28;20441;-69
2022/01/03 08:34:03;;;;;;;30.17;6.45;;;;;;;;;;5027345;28;20422;-70
2022/01/03 08:36:29;;;;;;;21.45;4.90;;;;;;;;;;5025283;28;20053;-69
2022/01/03 08:38:55;;;;;;;25.05;4.70;;;;;;;;;;5029903;28;20053;-70
2022/01/03 08:41:22;;;;;;;20.88;4.70;;;;;;;;;;5029198;28;20041;-70
2022/01/03 08:43:48;;;;;;;25.30;5.40;;;;;;;;;;5028853;28;20026;-69
2022/01/03 08:46:14;;;;;;;33.40;5.32;;;;;;;;;;5021930;28;20451;-70
2022/01/03 08:48:40;;;;;;;19.17;5.05;;;;;;;;;;5029234;28;20026;-69
2022/01/03 08:51:06;;;;;;;23.52;5.18;;;;;;;;;;5015919;28;20484;-71
2022/01/03 08:53:32;;;;;;;22.58;4.60;;;;;;;;;;5026840;28;20036;-69
2022/01/03 08:55:59;;;;;;;29.90;5.32;;;;;;;;;;5023413;28;20049;-70
2022/01/03 08:58:28;;;;;;;20.20;4.10;;;;;;;;;;5026704;28;20075;-71
2022/01/03 09:00:54;;;;;;;19.13;4.63;;;;;;;;;;5023433;28;20094;-70
2022/01/03 09:03:20;;;;;;;28.13;5.15;;;;;;;;;;5023521;28;20056;-69
2022/01/03 09:05:46;;;;;;;24.20;4.45;;;;;;;;;;5016931;28;20065;-68
2022/01/03 09:08:12;;;;;;;22.38;4.60;;;;;;;;;;5027964;28;20064;-69
2022/01/03 09:10:40;;;;;;;27.00;5.55;;;;;;;;;;5027632;28;20057;-70
2022/01/03 09:13:06;;;;;;;20.50;5.45;;;;;;;;;;5027968;28;20128;-67
2022/01/03 09:15:32;;;;;;;20.25;5.03;;;;;;;;;;5028111;28;20536;-69
2022/01/03 09:18:03;;;;;;;23.25;4.85;;;;;;;;;;5028614;28;20323;-69
2022/01/03 09:20:29;;;;;;;30.17;6.35;;;;;;;;;;5014285;28;20025;-68
2022/01/03 09:23:04;;;;;;;19.50;4.63;;;;;;;;;;5017850;28;20056;-71
2022/01/03 09:30:47;;;;;;;24.25;4.70;;;;;;;;;;5022539;28;20109;-66
2022/01/03 09:33:13;;;;;;;15.98;4.00;;;;;;;;;;5028484;28;20049;-70
2022/01/03 09:35:43;;;;;;;25.67;5.25;;;;;;;;;;5025475;28;20060;-68
2022/01/03 09:38:09;;;;;;;29.50;6.55;;;;;;;;;;5025025;28;20107;-69
2022/01/03 09:40:36;;;;;;;26.48;4.82;;;;;;;;;;5028376;28;20033;-68
2022/01/03 09:43:02;;;;;;;27.02;5.53;;;;;;;;;;5024413;28;20211;-71
2022/01/03 09:45:32;;;;;;;24.10;5.68;;;;;;;;;;5038580;28;20026;-70
2022/01/03 09:47:59;;;;;;;28.88;4.95;;;;;;;;;;5027927;28;20021;-68
2022/01/03 09:50:25;;;;;;;27.05;6.32;;;;;;;;;;5024011;28;20107;-69
2022/01/03 09:52:52;;;;;;;18.10;3.55;;;;;;;;;;5026299;28;20044;-70
2022/01/03 09:55:20;;;;;;;19.55;4.72;;;;;;;;;;5028003;28;20048;-70
2022/01/03 09:57:47;;;;;;;30.35;4.45;;;;;;;;;;5027701;28;20681;-71
2022/01/03 10:00:14;;;;;;;28.60;6.13;;;;;;;;;;5028054;28;20025;-70
2022/01/03 10:02:40;;;;;;;25.35;5.63;;;;;;;;;;5028425;28;20049;-70
2022/01/03 10:05:06;;;;;;;38.03;6.53;;;;;;;;;;5027781;28;20048;-70
2022/01/03 10:07:33;;;;;;;23.15;5.25;;;;;;;;;;5028286;28;20124;-70
2022/01/03 10:10:00;;;;;;;34.90;6.32;;;;;;;;;;5027712;28;20041;-71
2022/01/03 10:12:27;;;;;;;22.70;4.97;;;;;;;;;;5028660;28;20187;-68
2022/01/03 10:14:54;;;;;;;25.00;5.78;;;;;;;;;;5028309;28;20128;-67
2022/01/03 10:17:20;;;;;;;21.73;5.85;;;;;;;;;;5027445;28;20024;-71
2022/01/03 10:19:50;;;;;;;28.05;7.15;;;;;;;;;;5022480;28;20033;-68
2022/01/03 10:22:21;;;;;;;27.00;6.78;;;;;;;;;;5021932;28;20392;-68
2022/01/03 10:24:47;;;;;;;21.38;4.72;;;;;;;;;;5022815;28;20026;-69
2022/01/03 10:27:13;;;;;;;28.58;5.95;;;;;;;;;;5027447;28;20030;-71
2022/01/03 10:29:41;;;;;;;29.65;5.30;;;;;;;;;;5025802;28;20122;-71
2022/01/03 10:32:09;;;;;;;23.20;4.63;;;;;;;;;;5026754;28;20021;-72
2022/01/03 10:34:36;;;;;;;23.73;5.50;;;;;;;;;;5010293;28;20113;-72
2022/01/03 10:37:10;;;;;;;30.52;8.68;;;;;;;;;;5023365;28;20064;-73
2022/01/03 10:39:36;;;;;;;24.25;5.05;;;;;;;;;;5027952;28;20033;-72
2022/01/03 10:42:18;;;;;;;22.50;5.50;;;;;;;;;;5027301;28;20041;-73
2022/01/03 10:44:45;;;;;;;27.55;5.70;;;;;;;;;;5031444;28;20025;-72
2022/01/03 10:47:14;;;;;;;27.95;5.63;;;;;;;;;;5031762;28;20095;-72
2022/01/03 10:49:40;;;;;;;23.65;6.25;;;;;;;;;;5031344;28;20116;-73
2022/01/03 10:52:13;;;;;;;23.33;4.88;;;;;;;;;;5024952;28;20136;-71
2022/01/03 10:54:39;;;;;;;21.42;5.50;;;;;;;;;;5029905;28;20666;-70
2022/01/03 10:57:05;;;;;;;25.55;6.45;;;;;;;;;;5031450;28;20025;-72
2022/01/03 10:59:34;;;;;;;22.88;5.97;;;;;;;;;;5030074;28;20029;-73
2022/01/03 11:02:03;;;;;;;26.27;7.43;;;;;;;;;;5030954;28;20557;-72
2022/01/03 11:13:06;;;;;;;26.88;5.80;;;;;;;;;;5019593;28;20396;-75
2022/01/03 11:15:32;;;;;;;25.17;5.28;;;;;;;;;;5018642;28;20414;-75
2022/01/03 11:18:28;;;;;;;34.45;6.15;;;;;;;;;;5016170;28;20026;-77
2022/01/03 11:21:03;;;;;;;27.25;4.97;;;;;;;;;;5015707;28;20458;-75
2022/01/03 11:23:29;;;;;;;25.52;5.00;;;;;;;;;;5020788;28;20395;-77
2022/01/03 11:25:55;;;;;;;27.90;6.38;;;;;;;;;;5018728;28;20404;-79
2022/01/03 11:28:27;;;;;;;30.20;6.03;;;;;;;;;;5020458;28;20408;-78
2022/01/03 11:30:55;;;;;;;29.13;5.65;;;;;;;;;;5019379;28;20030;-78
2022/01/03 11:33:21;;;;;;;21.35;4.65;;;;;;;;;;5019637;28;20479;-77
2022/01/03 11:35:49;;;;;;;26.52;5.82;;;;;;;;;;5019456;28;20167;-76
2022/01/03 11:38:18;;;;;;;30.80;5.63;;;;;;;;;;5020055;28;20112;-77
2022/01/03 11:40:45;;;;;;;24.80;5.20;;;;;;;;;;5016052;28;20439;-73
2022/01/03 11:43:11;;;;;;;26.02;5.28;;;;;;;;;;5014987;28;20121;-77
2022/01/03 11:45:37;;;;;;;29.75;5.70;;;;;;;;;;5017827;28;20034;-78
2022/01/03 11:48:03;;;;;;;28.75;5.60;;;;;;;;;;5016720;28;20121;-76
2022/01/03 11:50:34;;;;;;;26.05;4.93;;;;;;;;;;5020120;28;20097;-79
2022/01/03 11:53:01;;;;;;;24.63;5.28;;;;;;;;;;5015614;28;20034;-76
2022/01/03 11:55:27;;;;;;;27.02;4.57;;;;;;;;;;5022597;28;20033;-74
2022/01/03 12:06:07;;;;;;;26.55;5.38;;;;;;;;;;5023812;28;20092;-76
2022/01/03 12:08:34;;;;;;;25.25;5.07;;;;;;;;;;5023044;28;20033;-75
2022/01/03 12:11:17;;;;;;;30.45;6.35;;;;;;;;;;5030824;28;20054;-75
2022/01/03 12:14:00;;;;;;;36.65;7.50;;;;;;;;;;5028455;28;20033;-75
2022/01/03 12:16:42;;;;;;;22.75;4.90;;;;;;;;;;5027274;28;20041;-75
2022/01/03 12:19:10;;;;;;;21.85;6.25;;;;;;;;;;5023612;28;20032;-74
2022/01/03 12:21:50;;;;;;;16.42;4.63;;;;;;;;;;5024056;28;20611;-76
2022/01/03 12:24:29;;;;;;;24.30;5.10;;;;;;;;;;5025694;28;20558;-76
2022/01/03 12:27:14;;;;;;;23.37;5.40;;;;;;;;;;5016609;28;20033;-80
2022/01/03 12:29:56;;;;;;;28.15;6.18;;;;;;;;;;5023815;28;20022;-79
2022/01/03 12:32:23;;;;;;;26.60;5.13;;;;;;;;;;5013847;28;20468;-80
2022/01/03 12:35:08;;;;;;;27.70;4.93;;;;;;;;;;5023308;28;20034;-74
2022/01/03 12:37:34;;;;;;;25.80;4.78;;;;;;;;;;5026960;28;20048;-75
2022/01/03 12:40:07;;;;;;;20.83;4.63;;;;;;;;;;5023558;28;20084;-77
2022/01/03 12:42:48;;;;;;;22.80;5.03;;;;;;;;;;5027031;28;20760;-80
2022/01/03 12:45:15;;;;;;;26.40;5.82;;;;;;;;;;5027535;28;20036;-78
2022/01/03 12:47:48;;;;;;;24.77;6.00;;;;;;;;;;5022933;28;20441;-77
2022/01/03 12:50:30;;;;;;;24.23;5.03;;;;;;;;;;5019062;28;20080;-76
2022/01/03 12:53:02;;;;;;;30.83;4.95;;;;;;;;;;5020607;28;20022;-78
2022/01/03 12:55:38;;;;;;;21.85;4.07;;;;;;;;;;5020300;28;20029;-74
2022/01/03 12:58:04;;;;;;;20.88;4.57;;;;;;;;;;5016680;28;20029;-75
2022/01/03 13:00:40;;;;;;;18.55;4.57;;;;;;;;;;5019684;28;20030;-74
2022/01/03 13:03:23;;;;;;;24.70;4.15;;;;;;;;;;5020890;28;20088;-72
2022/01/03 13:06:10;;;;;;;23.88;5.18;;;;;;;;;;5020387;28;21150;-73
2022/01/03 13:08:37;;;;;;;20.45;4.03;;;;;;;;;;5020266;28;20860;-76
2022/01/03 13:11:06;;;;;;;24.70;4.60;;;;;;;;;;5018589;28;20830;-73
2022/01/03 13:13:32;;;;;;;21.92;4.07;;;;;;;;;;5023059;28;20049;-73
2022/01/03 13:15:59;;;;;;;18.83;4.40;;;;;;;;;;5023342;28;21121;-77
2022/01/03 13:18:25;;;;;;;18.10;3.47;;;;;;;;;;5022547;28;20045;-71
2022/01/03 13:20:57;;;;;;;16.20;4.30;;;;;;;;;;5023752;28;20069;-75
2022/01/03 13:23:24;;;;;;;18.00;3.90;;;;;;;;;;5022787;28;20120;-74
2022/01/03 13:26:12;;;;;;;13.65;3.45;;;;;;;;;;5016766;28;21446;-75
2022/01/03 13:28:45;;;;;;;24.85;4.38;;;;;;;;;;5016564;28;20033;-76
2022/01/03 13:31:11;;;;;;;22.88;5.03;;;;;;;;;;5029078;28;20108;-76
2022/01/03 13:33:37;;;;;;;18.92;4.18;;;;;;;;;;5029056;28;20029;-76
2022/01/03 13:36:04;;;;;;;14.93;3.47;;;;;;;;;;5026050;28;20037;-76
2022/01/03 13:38:31;;;;;;;14.18;3.05;;;;;;;;;;5026169;28;20021;-76
2022/01/03 13:41:15;;;;;;;17.58;4.53;;;;;;;;;;5022740;28;20120;-75
2022/01/03 13:43:52;;;;;;;16.70;3.78;;;;;;;;;;5023008;28;20034;-79
2022/01/03 13:49:21;;;;;;;22.92;3.58;;;;;;;;;;5022939;28;20099;-78
2022/01/03 13:51:48;;;;;;;18.27;4.47;;;;;;;;;;5024664;28;20098;-74
2022/01/03 13:54:44;;;;;;;13.63;3.33;;;;;;;;;;5021001;28;20029;-76
2022/01/03 13:57:10;;;;;;;18.63;3.88;;;;;;;;;;5023776;28;20030;-75
2022/01/03 13:59:38;;;;;;;12.43;3.30;;;;;;;;;;5030158;28;20036;-76
2022/01/03 14:02:06;;;;;;;17.95;3.83;;;;;;;;;;5019834;28;20111;-76
2022/01/03 14:04:33;;;;;;;15.35;3.65;;;;;;;;;;5016291;28;20026;-75
2022/01/03 14:07:07;;;;;;;14.60;3.65;;;;;;;;;;5014153;28;20097;-77
2022/01/03 14:09:42;;;;;;;15.18;3.85;;;;;;;;;;5015002;28;20054;-75
2022/01/03 14:12:16;;;;;;;14.35;3.30;;;;;;;;;;5017271;28;20018;-71
2022/01/03 14:14:48;;;;;;;16.70;3.83;;;;;;;;;;5023097;28;20126;-78
2022/01/03 14:17:15;;;;;;;21.85;3.60;;;;;;;;;;5020047;28;20111;-79
2022/01/03 14:19:44;;;;;;;14.13;3.08;;;;;;;;;;5018877;28;20490;-77
2022/01/03 14:22:18;;;;;;;15.18;3.80;;;;;;;;;;5021578;28;20064;-74
2022/01/03 14:25:10;;;;;;;20.88;4.32;;;;;;;;;;5020116;28;20064;-79
2022/01/03 14:27:40;;;;;;;14.45;3.47;;;;;;;;;;5018353;28;20436;-75
2022/01/03 14:30:06;;;;;;;;;;;;;;;;;;5020631;28;20080;-72
2022/01/03 14:32:37;;;;;;;22.63;4.65;;;;;;;;;;5030255;28;20696;-76
2022/01/03 14:35:06;;;;;;;16.15;3.72;;;;;;;;;;5025161;28;20119;-76
2022/01/03 14:37:33;;;;;;;13.50;3.47;;;;;;;;;;5030117;28;20021;-74
2022/01/03 14:39:59;;;;;;;16.77;2.95;;;;;;;;;;5028194;28;20882;-75
2022/01/03 14:42:31;;;;;;;11.10;3.17;;;;;;;;;;5026470;28;20065;-76
2022/01/03 14:45:08;;;;;;;17.35;3.13;;;;;;;;;;5028586;28;20055;-77
2022/01/03 14:47:34;;;;;;;10.73;3.00;;;;;;;;;;5028899;28;20078;-75
2022/01/03 14:50:01;;;;;;;15.48;3.25;;;;;;;;;;5027935;28;20021;-76
2022/01/03 14:52:32;;;;;;;17.30;3.80;;;;;;;;;;5028555;28;20357;-76
2022/01/03 14:54:58;;;;;;;13.40;3.67;;;;;;;;;;5028964;28;20466;-76
2022/01/03 14:57:29;;;;;;;19.20;4.15;;;;;;;;;;5028852;28;20759;-76
2022/01/03 15:00:01;;;;;;;16.10;3.65;;;;;;;;;;5029063;28;20128;-75
2022/01/03 15:02:28;;;;;;;12.35;3.03;;;;;;;;;;5030236;28;20045;-74
2022/01/03 15:04:57;;;;;;;11.88;2.45;;;;;;;;;;5028969;28;20025;-74
2022/01/03 15:07:26;;;;;;;15.05;2.95;;;;;;;;;;5029378;28;20490;-76
2022/01/03 15:09:52;;;;;;;11.05;2.67;;;;;;;;;;5028739;28;20077;-75